sensor_id;sensor_type;location;lat;lon;timestamp;P1;durP1;ratioP1;P2;durP2;ratioP2
18929;SDS011;43305;52.186;5.598;2022-09-27T00:01:49;4.53;;;1.00;;
18929;SDS011;43305;52.186;5.598;2022-09-27T00:04:17;6.55;;;0.73;;
18929;SDS011;43305;52.186;5.598;2022-09-27T00:06:44;12.43;;;1.17;;
18929;SDS011;43305;52.186;5.598;2022-09-27T00:09:11;6.47;;;0.80;;
18929;SDS011;43305;52.186;5.598;2022-09-27T00:11:38;4.13;;;0.70;;
18929;SDS011;43305;52.186;5.598;2022-09-27T00:14:07;5.57;;;0.88;;
18929;SDS011;43305;52.186;5.598;2022-09-27T00:16:36;7.35;;;0.63;;
18929;SDS011;43305;52.186;5.598;2022-09-27T00:19:05;6.75;;;0.88;;
18929;SDS011;43305;52.186;5.598;2022-09-27T00:21:36;8.02;;;0.70;;
18929;SDS011;43305;52.186;5.598;2022-09-27T00:24:04;6.47;;;0.70;;
18929;SDS011;43305;52.186;5.598;2022-09-27T00:26:30;8.27;;;0.90;;
18929;SDS011;43305;52.186;5.598;2022-09-27T00:28:58;6.85;;;0.80;;
18929;SDS011;43305;52.186;5.598;2022-09-27T00:31:25;12.13;;;0.90;;
18929;SDS011;43305;52.186;5.598;2022-09-27T00:33:54;6.55;;;0.75;;
18929;SDS011;43305;52.186;5.598;2022-09-27T00:36:22;9.77;;;1.08;;
18929;SDS011;43305;52.186;5.598;2022-09-27T00:38:52;7.38;;;0.80;;
18929;SDS011;43305;52.186;5.598;2022-09-27T00:41:20;9.02;;;0.80;;
18929;SDS011;43305;52.186;5.598;2022-09-27T00:43:49;9.18;;;1.00;;
18929;SDS011;43305;52.186;5.598;2022-09-27T00:46:21;5.07;;;0.70;;
18929;SDS011;43305;52.186;5.598;2022-09-27T00:48:54;7.30;;;0.80;;
18929;SDS011;43305;52.186;5.598;2022-09-27T00:51:27;4.38;;;0.80;;
18929;SDS011;43305;52.186;5.598;2022-09-27T00:53:55;3.90;;;0.75;;
18929;SDS011;43305;52.186;5.598;2022-09-27T00:56:24;7.63;;;0.80;;
18929;SDS011;43305;52.186;5.598;2022-09-27T00:58:55;7.00;;;1.00;;
18929;SDS011;43305;52.186;5.598;2022-09-27T01:01:25;5.57;;;0.77;;
18929;SDS011;43305;52.186;5.598;2022-09-27T01:03:55;4.07;;;0.60;;
18929;SDS011;43305;52.186;5.598;2022-09-27T01:06:25;6.03;;;0.70;;
18929;SDS011;43305;52.186;5.598;2022-09-27T01:08:52;2.58;;;0.60;;
18929;SDS011;43305;52.186;5.598;2022-09-27T01:11:24;7.90;;;0.77;;
18929;SDS011;43305;52.186;5.598;2022-09-27T01:14:07;6.88;;;1.38;;
18929;SDS011;43305;52.186;5.598;2022-09-27T01:16:50;5.47;;;0.80;;
18929;SDS011;43305;52.186;5.598;2022-09-27T01:19:32;3.22;;;0.50;;
18929;SDS011;43305;52.186;5.598;2022-09-27T01:22:22;5.25;;;0.57;;
18929;SDS011;43305;52.186;5.598;2022-09-27T01:24:56;7.07;;;0.70;;
18929;SDS011;43305;52.186;5.598;2022-09-27T01:27:44;4.85;;;0.65;;
18929;SDS011;43305;52.186;5.598;2022-09-27T01:30:25;4.90;;;0.68;;
18929;SDS011;43305;52.186;5.598;2022-09-27T01:33:00;4.32;;;0.45;;
18929;SDS011;43305;52.186;5.598;2022-09-27T01:35:36;6.43;;;0.70;;
18929;SDS011;43305;52.186;5.598;2022-09-27T01:38:14;4.93;;;0.50;;
18929;SDS011;43305;52.186;5.598;2022-09-27T01:40:51;2.90;;;0.65;;
18929;SDS011;43305;52.186;5.598;2022-09-27T01:43:25;1.92;;;0.60;;
18929;SDS011;43305;52.186;5.598;2022-09-27T01:45:58;6.65;;;0.70;;
18929;SDS011;43305;52.186;5.598;2022-09-27T01:48:30;7.05;;;0.80;;
18929;SDS011;43305;52.186;5.598;2022-09-27T01:51:01;6.22;;;0.70;;
18929;SDS011;43305;52.186;5.598;2022-09-27T01:53:32;8.10;;;0.82;;
18929;SDS011;43305;52.186;5.598;2022-09-27T01:56:03;4.70;;;0.70;;
18929;SDS011;43305;52.186;5.598;2022-09-27T01:58:36;4.72;;;0.70;;
18929;SDS011;43305;52.186;5.598;2022-09-27T02:01:09;6.53;;;0.73;;
18929;SDS011;43305;52.186;5.598;2022-09-27T02:03:39;6.68;;;0.82;;
18929;SDS011;43305;52.186;5.598;2022-09-27T02:06:10;8.85;;;0.77;;
18929;SDS011;43305;52.186;5.598;2022-09-27T02:08:42;4.03;;;0.88;;
18929;SDS011;43305;52.186;5.598;2022-09-27T02:11:13;11.23;;;0.90;;
18929;SDS011;43305;52.186;5.598;2022-09-27T02:13:42;8.02;;;0.93;;
18929;SDS011;43305;52.186;5.598;2022-09-27T02:16:19;7.18;;;0.88;;
18929;SDS011;43305;52.186;5.598;2022-09-27T02:18:52;4.93;;;0.80;;
18929;SDS011;43305;52.186;5.598;2022-09-27T02:21:30;7.82;;;0.77;;
18929;SDS011;43305;52.186;5.598;2022-09-27T02:24:03;5.20;;;0.68;;
18929;SDS011;43305;52.186;5.598;2022-09-27T02:26:36;7.85;;;1.10;;
18929;SDS011;43305;52.186;5.598;2022-09-27T02:29:07;8.00;;;1.10;;
18929;SDS011;43305;52.186;5.598;2022-09-27T02:31:38;3.22;;;0.70;;
18929;SDS011;43305;52.186;5.598;2022-09-27T02:34:05;5.05;;;0.75;;
18929;SDS011;43305;52.186;5.598;2022-09-27T02:36:36;8.52;;;0.93;;
18929;SDS011;43305;52.186;5.598;2022-09-27T02:39:03;9.85;;;1.10;;
18929;SDS011;43305;52.186;5.598;2022-09-27T02:41:31;4.72;;;0.90;;
18929;SDS011;43305;52.186;5.598;2022-09-27T02:44:15;6.15;;;1.40;;
18929;SDS011;43305;52.186;5.598;2022-09-27T02:46:55;7.88;;;0.93;;
18929;SDS011;43305;52.186;5.598;2022-09-27T02:49:38;4.07;;;0.90;;
18929;SDS011;43305;52.186;5.598;2022-09-27T02:52:17;3.30;;;0.70;;
18929;SDS011;43305;52.186;5.598;2022-09-27T02:54:54;6.97;;;1.10;;
18929;SDS011;43305;52.186;5.598;2022-09-27T02:57:33;11.52;;;1.00;;
18929;SDS011;43305;52.186;5.598;2022-09-27T03:00:08;12.27;;;1.10;;
18929;SDS011;43305;52.186;5.598;2022-09-27T03:02:43;6.85;;;1.30;;
18929;SDS011;43305;52.186;5.598;2022-09-27T03:05:18;4.35;;;0.90;;
18929;SDS011;43305;52.186;5.598;2022-09-27T03:07:51;8.18;;;0.90;;
18929;SDS011;43305;52.186;5.598;2022-09-27T03:10:20;8.38;;;1.10;;
18929;SDS011;43305;52.186;5.598;2022-09-27T03:12:49;5.97;;;1.17;;
18929;SDS011;43305;52.186;5.598;2022-09-27T03:15:16;5.80;;;1.00;;
18929;SDS011;43305;52.186;5.598;2022-09-27T03:17:44;8.20;;;1.40;;
18929;SDS011;43305;52.186;5.598;2022-09-27T03:20:11;6.95;;;1.10;;
18929;SDS011;43305;52.186;5.598;2022-09-27T03:22:38;10.77;;;1.00;;
18929;SDS011;43305;52.186;5.598;2022-09-27T03:25:06;4.03;;;0.95;;
18929;SDS011;43305;52.186;5.598;2022-09-27T03:27:33;8.10;;;1.17;;
18929;SDS011;43305;52.186;5.598;2022-09-27T03:30:01;11.18;;;1.55;;
18929;SDS011;43305;52.186;5.598;2022-09-27T03:32:27;5.00;;;0.80;;
18929;SDS011;43305;52.186;5.598;2022-09-27T03:34:56;7.68;;;1.17;;
18929;SDS011;43305;52.186;5.598;2022-09-27T03:37:23;10.73;;;1.10;;
18929;SDS011;43305;52.186;5.598;2022-09-27T03:39:51;10.73;;;1.02;;
18929;SDS011;43305;52.186;5.598;2022-09-27T03:42:17;7.28;;;1.00;;
18929;SDS011;43305;52.186;5.598;2022-09-27T03:44:44;9.85;;;1.42;;
18929;SDS011;43305;52.186;5.598;2022-09-27T03:47:12;9.38;;;1.17;;
18929;SDS011;43305;52.186;5.598;2022-09-27T03:49:39;10.25;;;1.23;;
18929;SDS011;43305;52.186;5.598;2022-09-27T03:52:08;13.48;;;1.30;;
18929;SDS011;43305;52.186;5.598;2022-09-27T03:54:34;7.05;;;1.13;;
18929;SDS011;43305;52.186;5.598;2022-09-27T03:57:01;9.80;;;0.90;;
18929;SDS011;43305;52.186;5.598;2022-09-27T03:59:28;7.28;;;1.35;;
18929;SDS011;43305;52.186;5.598;2022-09-27T04:01:55;8.77;;;1.17;;
18929;SDS011;43305;52.186;5.598;2022-09-27T04:04:22;11.35;;;1.20;;
18929;SDS011;43305;52.186;5.598;2022-09-27T04:06:49;13.07;;;1.20;;
18929;SDS011;43305;52.186;5.598;2022-09-27T04:09:17;8.85;;;1.13;;
18929;SDS011;43305;52.186;5.598;2022-09-27T04:11:44;8.95;;;1.27;;
18929;SDS011;43305;52.186;5.598;2022-09-27T04:14:11;9.32;;;1.15;;
18929;SDS011;43305;52.186;5.598;2022-09-27T04:16:37;7.50;;;1.20;;
18929;SDS011;43305;52.186;5.598;2022-09-27T04:19:05;8.07;;;1.30;;
18929;SDS011;43305;52.186;5.598;2022-09-27T04:21:32;9.48;;;1.13;;
18929;SDS011;43305;52.186;5.598;2022-09-27T04:23:59;8.85;;;1.27;;
18929;SDS011;43305;52.186;5.598;2022-09-27T04:26:27;10.65;;;1.48;;
18929;SDS011;43305;52.186;5.598;2022-09-27T04:28:54;12.57;;;1.52;;
18929;SDS011;43305;52.186;5.598;2022-09-27T04:31:21;8.05;;;1.05;;
18929;SDS011;43305;52.186;5.598;2022-09-27T04:33:48;6.07;;;1.10;;
18929;SDS011;43305;52.186;5.598;2022-09-27T04:36:16;8.18;;;1.05;;
18929;SDS011;43305;52.186;5.598;2022-09-27T04:38:51;11.30;;;1.30;;
18929;SDS011;43305;52.186;5.598;2022-09-27T04:41:18;11.25;;;1.13;;
18929;SDS011;43305;52.186;5.598;2022-09-27T04:43:49;8.95;;;1.33;;
18929;SDS011;43305;52.186;5.598;2022-09-27T04:46:15;11.88;;;1.40;;
18929;SDS011;43305;52.186;5.598;2022-09-27T04:48:44;9.27;;;1.40;;
18929;SDS011;43305;52.186;5.598;2022-09-27T04:51:29;9.43;;;1.45;;
18929;SDS011;43305;52.186;5.598;2022-09-27T04:53:56;12.07;;;1.23;;
18929;SDS011;43305;52.186;5.598;2022-09-27T04:56:22;16.25;;;1.33;;
18929;SDS011;43305;52.186;5.598;2022-09-27T04:58:51;10.93;;;1.35;;
18929;SDS011;43305;52.186;5.598;2022-09-27T05:01:18;8.38;;;1.38;;
18929;SDS011;43305;52.186;5.598;2022-09-27T05:03:45;12.90;;;1.38;;
18929;SDS011;43305;52.186;5.598;2022-09-27T05:06:12;16.48;;;1.40;;
18929;SDS011;43305;52.186;5.598;2022-09-27T05:08:38;13.32;;;1.77;;
18929;SDS011;43305;52.186;5.598;2022-09-27T05:11:05;11.90;;;1.35;;
18929;SDS011;43305;52.186;5.598;2022-09-27T05:13:32;7.85;;;1.40;;
18929;SDS011;43305;52.186;5.598;2022-09-27T05:16:02;8.80;;;1.25;;
18929;SDS011;43305;52.186;5.598;2022-09-27T05:18:29;9.20;;;1.23;;
18929;SDS011;43305;52.186;5.598;2022-09-27T05:20:58;5.78;;;1.20;;
18929;SDS011;43305;52.186;5.598;2022-09-27T05:23:25;6.60;;;1.60;;
18929;SDS011;43305;52.186;5.598;2022-09-27T05:25:52;8.50;;;1.10;;
18929;SDS011;43305;52.186;5.598;2022-09-27T05:28:21;14.02;;;1.38;;
18929;SDS011;43305;52.186;5.598;2022-09-27T05:30:48;10.32;;;1.40;;
18929;SDS011;43305;52.186;5.598;2022-09-27T05:33:16;8.95;;;1.27;;
18929;SDS011;43305;52.186;5.598;2022-09-27T05:35:50;11.55;;;1.40;;
18929;SDS011;43305;52.186;5.598;2022-09-27T05:38:17;10.95;;;1.35;;
18929;SDS011;43305;52.186;5.598;2022-09-27T05:40:44;9.88;;;1.50;;
18929;SDS011;43305;52.186;5.598;2022-09-27T05:43:14;9.38;;;1.52;;
18929;SDS011;43305;52.186;5.598;2022-09-27T05:45:41;10.50;;;1.40;;
18929;SDS011;43305;52.186;5.598;2022-09-27T05:48:08;12.15;;;1.40;;
18929;SDS011;43305;52.186;5.598;2022-09-27T05:50:37;8.68;;;1.15;;
18929;SDS011;43305;52.186;5.598;2022-09-27T05:53:05;9.60;;;1.25;;
18929;SDS011;43305;52.186;5.598;2022-09-27T05:55:32;9.90;;;1.30;;
18929;SDS011;43305;52.186;5.598;2022-09-27T05:57:59;12.40;;;1.40;;
18929;SDS011;43305;52.186;5.598;2022-09-27T06:00:27;10.45;;;1.15;;
18929;SDS011;43305;52.186;5.598;2022-09-27T06:02:54;8.30;;;1.42;;
18929;SDS011;43305;52.186;5.598;2022-09-27T06:05:21;7.57;;;1.40;;
18929;SDS011;43305;52.186;5.598;2022-09-27T06:07:50;15.27;;;1.92;;
18929;SDS011;43305;52.186;5.598;2022-09-27T06:10:22;10.45;;;1.52;;
18929;SDS011;43305;52.186;5.598;2022-09-27T06:12:49;11.25;;;1.48;;
18929;SDS011;43305;52.186;5.598;2022-09-27T06:15:16;10.27;;;1.60;;
18929;SDS011;43305;52.186;5.598;2022-09-27T06:17:43;11.25;;;2.38;;
18929;SDS011;43305;52.186;5.598;2022-09-27T06:20:10;13.27;;;1.80;;
18929;SDS011;43305;52.186;5.598;2022-09-27T06:22:37;11.25;;;1.70;;
18929;SDS011;43305;52.186;5.598;2022-09-27T06:25:06;7.57;;;2.03;;
18929;SDS011;43305;52.186;5.598;2022-09-27T06:27:34;14.45;;;2.65;;
18929;SDS011;43305;52.186;5.598;2022-09-27T06:30:00;10.35;;;2.50;;
18929;SDS011;43305;52.186;5.598;2022-09-27T06:32:27;12.32;;;2.35;;
18929;SDS011;43305;52.186;5.598;2022-09-27T06:34:54;11.85;;;2.38;;
18929;SDS011;43305;52.186;5.598;2022-09-27T06:37:23;13.10;;;2.80;;
18929;SDS011;43305;52.186;5.598;2022-09-27T06:39:54;10.52;;;2.50;;
18929;SDS011;43305;52.186;5.598;2022-09-27T06:42:22;9.93;;;2.60;;
18929;SDS011;43305;52.186;5.598;2022-09-27T06:44:49;8.40;;;2.13;;
18929;SDS011;43305;52.186;5.598;2022-09-27T06:47:19;13.98;;;2.00;;
18929;SDS011;43305;52.186;5.598;2022-09-27T06:49:47;13.23;;;2.08;;
18929;SDS011;43305;52.186;5.598;2022-09-27T06:52:16;10.48;;;1.67;;
18929;SDS011;43305;52.186;5.598;2022-09-27T06:54:46;8.90;;;1.50;;
18929;SDS011;43305;52.186;5.598;2022-09-27T06:57:13;12.75;;;1.73;;
18929;SDS011;43305;52.186;5.598;2022-09-27T07:00:02;9.63;;;1.60;;
18929;SDS011;43305;52.186;5.598;2022-09-27T07:02:44;9.50;;;1.70;;
18929;SDS011;43305;52.186;5.598;2022-09-27T07:05:12;8.85;;;1.50;;
18929;SDS011;43305;52.186;5.598;2022-09-27T07:07:39;6.30;;;1.85;;
18929;SDS011;43305;52.186;5.598;2022-09-27T07:10:06;10.25;;;1.98;;
18929;SDS011;43305;52.186;5.598;2022-09-27T07:12:34;8.93;;;1.70;;
18929;SDS011;43305;52.186;5.598;2022-09-27T07:15:03;10.45;;;1.73;;
18929;SDS011;43305;52.186;5.598;2022-09-27T07:17:30;6.53;;;1.50;;
18929;SDS011;43305;52.186;5.598;2022-09-27T07:20:00;9.20;;;2.03;;
18929;SDS011;43305;52.186;5.598;2022-09-27T07:22:27;7.90;;;1.58;;
18929;SDS011;43305;52.186;5.598;2022-09-27T07:24:56;8.85;;;1.80;;
18929;SDS011;43305;52.186;5.598;2022-09-27T07:27:22;9.65;;;1.45;;
18929;SDS011;43305;52.186;5.598;2022-09-27T07:29:53;7.93;;;1.42;;
18929;SDS011;43305;52.186;5.598;2022-09-27T07:32:24;9.15;;;1.40;;
18929;SDS011;43305;52.186;5.598;2022-09-27T07:34:50;6.38;;;1.13;;
18929;SDS011;43305;52.186;5.598;2022-09-27T07:37:17;5.60;;;1.30;;
18929;SDS011;43305;52.186;5.598;2022-09-27T07:39:45;5.45;;;1.30;;
18929;SDS011;43305;52.186;5.598;2022-09-27T07:42:11;9.30;;;1.60;;
18929;SDS011;43305;52.186;5.598;2022-09-27T07:44:38;5.53;;;1.40;;
18929;SDS011;43305;52.186;5.598;2022-09-27T07:47:05;5.68;;;1.35;;
18929;SDS011;43305;52.186;5.598;2022-09-27T07:52:30;6.68;;;1.00;;
18929;SDS011;43305;52.186;5.598;2022-09-27T07:55:06;4.18;;;0.88;;
18929;SDS011;43305;52.186;5.598;2022-09-27T07:57:34;8.80;;;1.30;;
18929;SDS011;43305;52.186;5.598;2022-09-27T08:00:02;5.65;;;1.00;;
18929;SDS011;43305;52.186;5.598;2022-09-27T08:02:30;4.00;;;1.10;;
18929;SDS011;43305;52.186;5.598;2022-09-27T08:04:58;3.40;;;0.82;;
18929;SDS011;43305;52.186;5.598;2022-09-27T08:07:25;6.57;;;1.00;;
18929;SDS011;43305;52.186;5.598;2022-09-27T08:09:52;8.20;;;1.15;;
18929;SDS011;43305;52.186;5.598;2022-09-27T08:12:19;6.30;;;0.95;;
18929;SDS011;43305;52.186;5.598;2022-09-27T08:14:46;4.03;;;0.90;;
18929;SDS011;43305;52.186;5.598;2022-09-27T08:17:14;6.63;;;0.80;;
18929;SDS011;43305;52.186;5.598;2022-09-27T08:19:41;8.35;;;1.00;;
18929;SDS011;43305;52.186;5.598;2022-09-27T08:22:10;8.57;;;1.20;;
18929;SDS011;43305;52.186;5.598;2022-09-27T08:24:38;8.75;;;1.10;;
18929;SDS011;43305;52.186;5.598;2022-09-27T08:27:05;5.15;;;0.80;;
18929;SDS011;43305;52.186;5.598;2022-09-27T08:29:32;6.43;;;0.95;;
18929;SDS011;43305;52.186;5.598;2022-09-27T08:31:59;7.63;;;1.38;;
18929;SDS011;43305;52.186;5.598;2022-09-27T08:34:26;9.50;;;1.33;;
18929;SDS011;43305;52.186;5.598;2022-09-27T08:36:53;6.68;;;1.40;;
18929;SDS011;43305;52.186;5.598;2022-09-27T08:39:21;9.50;;;1.60;;
18929;SDS011;43305;52.186;5.598;2022-09-27T08:41:49;4.90;;;1.40;;
18929;SDS011;43305;52.186;5.598;2022-09-27T08:44:22;6.70;;;1.30;;
18929;SDS011;43305;52.186;5.598;2022-09-27T08:46:56;7.57;;;1.92;;
18929;SDS011;43305;52.186;5.598;2022-09-27T08:49:31;8.50;;;2.00;;
18929;SDS011;43305;52.186;5.598;2022-09-27T08:52:19;9.05;;;1.40;;
18929;SDS011;43305;52.186;5.598;2022-09-27T08:54:52;14.52;;;2.17;;
18929;SDS011;43305;52.186;5.598;2022-09-27T08:57:21;9.00;;;2.28;;
18929;SDS011;43305;52.186;5.598;2022-09-27T08:59:52;8.27;;;1.80;;
18929;SDS011;43305;52.186;5.598;2022-09-27T09:02:25;7.57;;;1.77;;
18929;SDS011;43305;52.186;5.598;2022-09-27T09:04:54;8.32;;;2.05;;
18929;SDS011;43305;52.186;5.598;2022-09-27T09:07:30;8.07;;;1.60;;
18929;SDS011;43305;52.186;5.598;2022-09-27T09:10:17;7.63;;;1.73;;
18929;SDS011;43305;52.186;5.598;2022-09-27T09:13:11;10.02;;;2.08;;
18929;SDS011;43305;52.186;5.598;2022-09-27T09:15:47;8.35;;;1.98;;
18929;SDS011;43305;52.186;5.598;2022-09-27T09:18:24;4.50;;;1.60;;
18929;SDS011;43305;52.186;5.598;2022-09-27T09:21:02;8.35;;;2.00;;
18929;SDS011;43305;52.186;5.598;2022-09-27T09:23:39;8.40;;;2.17;;
18929;SDS011;43305;52.186;5.598;2022-09-27T09:26:19;4.65;;;1.70;;
18929;SDS011;43305;52.186;5.598;2022-09-27T09:28:55;10.50;;;1.65;;
18929;SDS011;43305;52.186;5.598;2022-09-27T09:31:32;6.63;;;1.77;;
18929;SDS011;43305;52.186;5.598;2022-09-27T09:34:07;5.32;;;1.48;;
18929;SDS011;43305;52.186;5.598;2022-09-27T09:36:40;5.05;;;1.02;;
18929;SDS011;43305;52.186;5.598;2022-09-27T09:39:13;5.10;;;1.05;;
18929;SDS011;43305;52.186;5.598;2022-09-27T09:41:54;4.30;;;1.15;;
18929;SDS011;43305;52.186;5.598;2022-09-27T09:44:31;6.47;;;1.40;;
18929;SDS011;43305;52.186;5.598;2022-09-27T09:47:03;4.15;;;1.02;;
18929;SDS011;43305;52.186;5.598;2022-09-27T09:49:41;6.13;;;1.23;;
18929;SDS011;43305;52.186;5.598;2022-09-27T09:52:11;6.32;;;1.10;;
18929;SDS011;43305;52.186;5.598;2022-09-27T09:54:44;3.80;;;1.08;;
18929;SDS011;43305;52.186;5.598;2022-09-27T09:57:19;7.43;;;1.20;;
18929;SDS011;43305;52.186;5.598;2022-09-27T09:59:51;4.70;;;1.20;;
18929;SDS011;43305;52.186;5.598;2022-09-27T10:02:25;5.82;;;1.40;;
18929;SDS011;43305;52.186;5.598;2022-09-27T10:04:57;4.00;;;1.30;;
18929;SDS011;43305;52.186;5.598;2022-09-27T10:07:23;6.43;;;1.65;;
18929;SDS011;43305;52.186;5.598;2022-09-27T10:09:52;8.07;;;1.60;;
18929;SDS011;43305;52.186;5.598;2022-09-27T10:12:23;5.05;;;1.17;;
18929;SDS011;43305;52.186;5.598;2022-09-27T10:14:50;5.88;;;1.02;;
18929;SDS011;43305;52.186;5.598;2022-09-27T10:17:20;4.90;;;1.17;;
18929;SDS011;43305;52.186;5.598;2022-09-27T10:19:50;5.65;;;1.10;;
18929;SDS011;43305;52.186;5.598;2022-09-27T10:22:21;11.13;;;1.52;;
18929;SDS011;43305;52.186;5.598;2022-09-27T10:24:55;5.85;;;1.00;;
18929;SDS011;43305;52.186;5.598;2022-09-27T10:27:25;9.20;;;1.50;;
18929;SDS011;43305;52.186;5.598;2022-09-27T10:29:55;7.25;;;1.70;;
18929;SDS011;43305;52.186;5.598;2022-09-27T10:32:24;9.60;;;1.33;;
18929;SDS011;43305;52.186;5.598;2022-09-27T10:34:55;5.10;;;1.33;;
18929;SDS011;43305;52.186;5.598;2022-09-27T10:37:22;7.88;;;1.58;;
18929;SDS011;43305;52.186;5.598;2022-09-27T10:39:49;8.57;;;1.20;;
18929;SDS011;43305;52.186;5.598;2022-09-27T10:42:19;7.32;;;1.35;;
18929;SDS011;43305;52.186;5.598;2022-09-27T10:44:48;3.85;;;1.00;;
18929;SDS011;43305;52.186;5.598;2022-09-27T10:47:17;6.78;;;1.40;;
18929;SDS011;43305;52.186;5.598;2022-09-27T10:49:47;6.53;;;1.08;;
18929;SDS011;43305;52.186;5.598;2022-09-27T10:52:17;5.72;;;0.93;;
18929;SDS011;43305;52.186;5.598;2022-09-27T10:54:51;6.35;;;1.33;;
18929;SDS011;43305;52.186;5.598;2022-09-27T10:57:20;6.68;;;1.10;;
18929;SDS011;43305;52.186;5.598;2022-09-27T10:59:50;7.80;;;0.85;;
18929;SDS011;43305;52.186;5.598;2022-09-27T11:02:19;4.90;;;0.70;;
18929;SDS011;43305;52.186;5.598;2022-09-27T11:05:01;2.45;;;0.50;;
18929;SDS011;43305;52.186;5.598;2022-09-27T11:07:30;4.57;;;0.85;;
18929;SDS011;43305;52.186;5.598;2022-09-27T11:09:58;5.72;;;0.75;;
18929;SDS011;43305;52.186;5.598;2022-09-27T11:12:29;5.40;;;0.90;;
18929;SDS011;43305;52.186;5.598;2022-09-27T11:15:01;2.60;;;0.55;;
18929;SDS011;43305;52.186;5.598;2022-09-27T11:17:33;8.23;;;1.15;;
18929;SDS011;43305;52.186;5.598;2022-09-27T11:22:57;5.47;;;0.60;;
18929;SDS011;43305;52.186;5.598;2022-09-27T11:25:41;2.47;;;0.50;;
18929;SDS011;43305;52.186;5.598;2022-09-27T11:28:18;4.00;;;0.80;;
18929;SDS011;43305;52.186;5.598;2022-09-27T11:30:55;2.83;;;0.47;;
18929;SDS011;43305;52.186;5.598;2022-09-27T11:33:34;4.97;;;1.23;;
18929;SDS011;43305;52.186;5.598;2022-09-27T11:36:16;3.95;;;0.60;;
18929;SDS011;43305;52.186;5.598;2022-09-27T11:38:55;5.38;;;0.80;;
18929;SDS011;43305;52.186;5.598;2022-09-27T11:41:35;2.13;;;0.75;;
18929;SDS011;43305;52.186;5.598;2022-09-27T11:44:15;3.35;;;0.70;;
18929;SDS011;43305;52.186;5.598;2022-09-27T11:46:56;3.67;;;0.55;;
18929;SDS011;43305;52.186;5.598;2022-09-27T11:49:35;4.03;;;0.60;;
18929;SDS011;43305;52.186;5.598;2022-09-27T11:52:19;1.63;;;0.40;;
18929;SDS011;43305;52.186;5.598;2022-09-27T11:55:00;2.70;;;0.63;;
18929;SDS011;43305;52.186;5.598;2022-09-27T11:57:37;5.97;;;0.90;;
18929;SDS011;43305;52.186;5.598;2022-09-27T12:00:13;4.15;;;0.90;;
18929;SDS011;43305;52.186;5.598;2022-09-27T12:02:51;2.65;;;0.90;;
18929;SDS011;43305;52.186;5.598;2022-09-27T12:05:33;2.38;;;0.70;;
18929;SDS011;43305;52.186;5.598;2022-09-27T12:08:11;2.33;;;0.80;;
18929;SDS011;43305;52.186;5.598;2022-09-27T12:10:49;3.13;;;0.80;;
18929;SDS011;43305;52.186;5.598;2022-09-27T12:13:22;4.68;;;1.10;;
18929;SDS011;43305;52.186;5.598;2022-09-27T12:15:57;2.10;;;0.77;;
18929;SDS011;43305;52.186;5.598;2022-09-27T12:18:26;3.15;;;0.65;;
18929;SDS011;43305;52.186;5.598;2022-09-27T12:20:58;3.85;;;0.70;;
18929;SDS011;43305;52.186;5.598;2022-09-27T12:23:28;4.60;;;0.60;;
18929;SDS011;43305;52.186;5.598;2022-09-27T12:26:05;2.42;;;0.73;;
18929;SDS011;43305;52.186;5.598;2022-09-27T12:28:37;2.72;;;0.50;;
18929;SDS011;43305;52.186;5.598;2022-09-27T12:31:14;1.73;;;0.55;;
18929;SDS011;43305;52.186;5.598;2022-09-27T12:33:47;3.78;;;0.50;;
18929;SDS011;43305;52.186;5.598;2022-09-27T12:36:20;2.22;;;0.60;;
18929;SDS011;43305;52.186;5.598;2022-09-27T12:38:55;2.90;;;0.50;;
18929;SDS011;43305;52.186;5.598;2022-09-27T12:41:27;2.08;;;0.40;;
18929;SDS011;43305;52.186;5.598;2022-09-27T12:43:56;1.77;;;0.50;;
18929;SDS011;43305;52.186;5.598;2022-09-27T12:46:27;0.93;;;0.40;;
18929;SDS011;43305;52.186;5.598;2022-09-27T12:49:04;2.08;;;0.50;;
18929;SDS011;43305;52.186;5.598;2022-09-27T12:51:38;1.30;;;0.40;;
18929;SDS011;43305;52.186;5.598;2022-09-27T12:54:21;3.80;;;0.60;;
18929;SDS011;43305;52.186;5.598;2022-09-27T12:57:00;3.08;;;0.60;;
18929;SDS011;43305;52.186;5.598;2022-09-27T12:59:34;4.07;;;0.73;;
18929;SDS011;43305;52.186;5.598;2022-09-27T13:02:17;4.05;;;0.90;;
18929;SDS011;43305;52.186;5.598;2022-09-27T13:05:05;3.65;;;0.98;;
18929;SDS011;43305;52.186;5.598;2022-09-27T13:07:49;1.55;;;0.70;;
18929;SDS011;43305;52.186;5.598;2022-09-27T13:13:09;3.05;;;0.80;;
18929;SDS011;43305;52.186;5.598;2022-09-27T13:15:41;2.40;;;1.00;;
18929;SDS011;43305;52.186;5.598;2022-09-27T13:18:27;5.60;;;0.80;;
18929;SDS011;43305;52.186;5.598;2022-09-27T13:20:57;3.03;;;0.80;;
18929;SDS011;43305;52.186;5.598;2022-09-27T13:26:19;4.40;;;0.95;;
18929;SDS011;43305;52.186;5.598;2022-09-27T13:34:36;3.83;;;1.10;;
18929;SDS011;43305;52.186;5.598;2022-09-27T13:43:06;5.78;;;1.00;;
18929;SDS011;43305;52.186;5.598;2022-09-27T13:45:52;2.45;;;0.60;;
18929;SDS011;43305;52.186;5.598;2022-09-27T13:48:23;7.57;;;1.40;;
18929;SDS011;43305;52.186;5.598;2022-09-27T13:50:56;3.40;;;1.10;;
18929;SDS011;43305;52.186;5.598;2022-09-27T13:53:27;9.43;;;1.42;;
18929;SDS011;43305;52.186;5.598;2022-09-27T13:55:58;4.40;;;1.33;;
18929;SDS011;43305;52.186;5.598;2022-09-27T13:58:31;3.90;;;0.70;;
18929;SDS011;43305;52.186;5.598;2022-09-27T14:01:08;5.40;;;0.80;;
18929;SDS011;43305;52.186;5.598;2022-09-27T14:03:41;3.72;;;1.10;;
18929;SDS011;43305;52.186;5.598;2022-09-27T14:06:12;2.60;;;1.10;;
18929;SDS011;43305;52.186;5.598;2022-09-27T14:08:42;3.53;;;0.80;;
18929;SDS011;43305;52.186;5.598;2022-09-27T14:11:15;6.55;;;0.85;;
18929;SDS011;43305;52.186;5.598;2022-09-27T14:13:47;3.47;;;1.30;;
18929;SDS011;43305;52.186;5.598;2022-09-27T14:16:15;3.65;;;0.80;;
18929;SDS011;43305;52.186;5.598;2022-09-27T14:18:45;1.98;;;0.70;;
18929;SDS011;43305;52.186;5.598;2022-09-27T14:21:18;2.65;;;0.50;;
18929;SDS011;43305;52.186;5.598;2022-09-27T14:23:51;3.75;;;0.88;;
18929;SDS011;43305;52.186;5.598;2022-09-27T14:26:22;3.75;;;0.77;;
18929;SDS011;43305;52.186;5.598;2022-09-27T14:28:50;2.28;;;0.77;;
18929;SDS011;43305;52.186;5.598;2022-09-27T14:31:17;1.85;;;0.63;;
18929;SDS011;43305;52.186;5.598;2022-09-27T14:33:47;1.70;;;0.60;;
18929;SDS011;43305;52.186;5.598;2022-09-27T14:36:25;2.63;;;0.73;;
18929;SDS011;43305;52.186;5.598;2022-09-27T14:39:13;4.13;;;0.68;;
18929;SDS011;43305;52.186;5.598;2022-09-27T14:41:42;9.60;;;7.15;;
18929;SDS011;43305;52.186;5.598;2022-09-27T14:44:13;4.45;;;1.30;;
18929;SDS011;43305;52.186;5.598;2022-09-27T14:46:41;2.28;;;0.80;;
18929;SDS011;43305;52.186;5.598;2022-09-27T14:49:17;2.28;;;0.93;;
18929;SDS011;43305;52.186;5.598;2022-09-27T14:51:49;4.18;;;0.60;;
18929;SDS011;43305;52.186;5.598;2022-09-27T14:54:20;4.05;;;0.80;;
18929;SDS011;43305;52.186;5.598;2022-09-27T14:56:51;4.05;;;1.00;;
18929;SDS011;43305;52.186;5.598;2022-09-27T14:59:21;2.78;;;0.88;;
18929;SDS011;43305;52.186;5.598;2022-09-27T15:01:55;3.13;;;0.95;;
18929;SDS011;43305;52.186;5.598;2022-09-27T15:04:25;3.53;;;0.90;;
18929;SDS011;43305;52.186;5.598;2022-09-27T15:06:54;1.77;;;0.60;;
18929;SDS011;43305;52.186;5.598;2022-09-27T15:09:21;0.95;;;0.60;;
18929;SDS011;43305;52.186;5.598;2022-09-27T15:11:53;2.45;;;0.73;;
18929;SDS011;43305;52.186;5.598;2022-09-27T15:14:23;3.30;;;1.10;;
18929;SDS011;43305;52.186;5.598;2022-09-27T15:16:52;4.68;;;1.30;;
18929;SDS011;43305;52.186;5.598;2022-09-27T15:19:22;6.90;;;1.55;;
18929;SDS011;43305;52.186;5.598;2022-09-27T15:21:52;3.53;;;1.45;;
18929;SDS011;43305;52.186;5.598;2022-09-27T15:24:37;3.17;;;1.10;;
18929;SDS011;43305;52.186;5.598;2022-09-27T15:27:16;5.80;;;1.25;;
18929;SDS011;43305;52.186;5.598;2022-09-27T15:29:51;4.28;;;1.05;;
18929;SDS011;43305;52.186;5.598;2022-09-27T15:32:23;2.55;;;1.13;;
18929;SDS011;43305;52.186;5.598;2022-09-27T15:34:56;5.43;;;1.80;;